• Join FlightAware (Why Join?)
  • Login
  • US Flag 
11:41PM EDT


 

Airport Tracker/Info


-or-


 

Live Flight TrackerFlight Track Log ✈ AVN10 ✈ 10-Sep-2013 ✈ NVVV / VLI - YSSY / SYD

Flight Track Log - Related Links

Times and Time Zones

All times are in EDT time to prevent confusion due to time zone crossing. See the AVN10 flight status page for this flight to view local times or setup timezone preferences in your user account.

Time Position Orientation Groundspeed Altitude Reporting Facility
EDT Latitude Longitude Course Direction KTS MPH feet Rate Location/Type
02:13AM -17.9084 168.2133 206° Southwest  Level FlightAware Approximate
02:14AM -18.0129 168.1600 206° Southwest  Level FlightAware Approximate
02:15AM -18.1175 168.1066 206° Southwest  Level FlightAware Approximate
02:16AM -18.2220 168.0531 206° Southwest  Level FlightAware Approximate
02:17AM -18.3264 167.9996 206° Southwest  Level FlightAware Approximate
02:18AM -18.4309 167.9460 206° Southwest  Level FlightAware Approximate
02:19AM -18.5354 167.8924 206° Southwest  Level FlightAware Approximate
02:20AM -18.6234 167.8123 204° Southwest  Level Estimated
02:21AM -18.7298 167.7631 204° Southwest  Level FlightAware Approximate
02:22AM -18.8362 167.7138 204° Southwest  Level FlightAware Approximate
02:23AM -18.9426 167.6644 204° Southwest  Level FlightAware Approximate
02:24AM -19.0489 167.6150 204° Southwest  Level FlightAware Approximate
02:25AM -19.1553 167.5655 204° Southwest  Level FlightAware Approximate
02:26AM -19.2616 167.5160 204° Southwest  Level FlightAware Approximate
02:27AM -19.3680 167.4664 204° Southwest  Level FlightAware Approximate
02:28AM -19.4743 167.4167 204° Southwest  Level FlightAware Approximate
02:29AM -19.5806 167.3669 204° Southwest  Level FlightAware Approximate
02:30AM -19.6869 167.3171 204° Southwest  Level FlightAware Approximate
02:31AM -19.7932 167.2673 204° Southwest  Level FlightAware Approximate
02:32AM -19.8994 167.2173 204° Southwest  Level FlightAware Approximate
02:33AM -20.0057 167.1673 204° Southwest  Level FlightAware Approximate
02:34AM -20.1119 167.1172 204° Southwest  Level FlightAware Approximate
02:35AM -20.2181 167.0671 204° Southwest  Level FlightAware Approximate
02:36AM -20.3244 167.0169 204° Southwest  Level FlightAware Approximate
02:37AM -20.4305 166.9666 204° Southwest  Level FlightAware Approximate
02:38AM -20.5367 166.9162 204° Southwest  Level FlightAware Approximate
02:39AM -20.6429 166.8658 204° Southwest  Level FlightAware Approximate
02:39AM -20.5650 166.8960 204° Southwest 435 501 34,000  Level FlightAware
02:40AM -20.7490 166.8153 204° Southwest  Level FlightAware Approximate
02:40AM -20.6530 166.8550 204° Southwest 435 501 34,000  Level FlightAware
02:41AM -20.7110 166.8270 204° Southwest 435 501 34,000  Level FlightAware
02:41AM -20.7860 166.7920 204° Southwest 433 498 34,000  Level FlightAware
02:42AM -20.8460 166.7640 204° Southwest 433 498 34,000  Level FlightAware
02:43AM -20.9140 166.7310 204° Southwest 433 498 34,000  Level FlightAware
02:43AM -20.9790 166.7010 203° Southwest 432 497 34,000  Level FlightAware
02:44AM -21.0370 166.6730 204° Southwest 432 497 34,000  Level FlightAware
02:44AM -21.1040 166.6420 203° Southwest 431 496 34,000  Level FlightAware
02:45AM -21.1710 166.6100 204° Southwest 431 496 34,000  Level FlightAware
02:46AM -21.2320 166.5810 204° Southwest 431 496 34,000  Level FlightAware
02:46AM -21.2980 166.5500 204° Southwest 431 496 34,000  Level FlightAware
02:47AM -21.3610 166.5200 204° Southwest 432 497 34,000  Level FlightAware
02:47AM -21.4270 166.4880 204° Southwest 433 498 34,000  Level FlightAware
02:48AM -21.4870 166.4600 203° Southwest 433 498 34,000  Level FlightAware
02:48AM -21.5520 166.4290 204° Southwest 433 498 34,000  Level FlightAware
02:49AM -21.6110 166.4000 205° Southwest 433 498 34,000  Level FlightAware
02:50AM -21.6850 166.3650 204° Southwest 434 499 34,000  Level FlightAware
02:50AM -21.7440 166.3370 204° Southwest 435 501 34,000  Level FlightAware
02:51AM -21.8110 166.3050 204° Southwest 435 501 34,000  Level FlightAware
02:51AM -21.8810 166.2710 204° Southwest 436 502 34,000  Level FlightAware
02:52AM -21.9390 166.2430 204° Southwest 436 502 34,000  Level FlightAware
02:53AM -22.0010 166.2100 206° Southwest 428 493 34,000  Level FlightAware
02:53AM -22.0570 166.1580 221° Southwest 418 481 34,000  Level FlightAware
02:54AM -22.1010 166.1120 224° Southwest 417 480 34,000  Level FlightAware
02:54AM -22.1520 166.0590 224° Southwest 417 480 34,000  Level FlightAware
02:55AM -22.2030 166.0050 224° Southwest 416 479 34,000  Level FlightAware
02:55AM -22.2480 165.9580 224° Southwest 415 478 34,000  Level FlightAware
02:56AM -22.2960 165.9070 225° Southwest 412 474 34,000  Level FlightAware
02:57AM -22.3450 165.8550 224° Southwest 412 474 34,000  Level FlightAware
02:57AM -22.3890 165.8090 224° Southwest 411 473 34,000  Level FlightAware
02:58AM -22.4390 165.7560 224° Southwest 411 473 34,000  Level FlightAware
02:58AM -22.4880 165.7050 224° Southwest 411 473 34,000  Level FlightAware
02:59AM -22.5360 165.6540 224° Southwest 411 473 34,000  Level FlightAware
02:59AM -22.5780 165.6100 224° Southwest 411 473 34,000  Level FlightAware
03:00AM -22.6300 165.5550 224° Southwest 412 474 34,000  Level FlightAware
03:01AM -22.6730 165.5090 225° Southwest 412 474 34,000  Level FlightAware
03:01AM -22.7260 165.4540 224° Southwest 412 474 34,000  Level FlightAware
03:02AM -22.7750 165.4020 224° Southwest 412 474 34,000  Level FlightAware
03:02AM -22.8230 165.3500 225° Southwest 412 474 34,000  Level FlightAware
03:03AM -22.8690 165.3010 224° Southwest 412 474 34,000  Level FlightAware
03:04AM -22.9140 165.2540 224° Southwest 412 474 34,000  Level FlightAware
03:04AM -22.9620 165.2030 224° Southwest 411 473 34,000  Level FlightAware
03:05AM -23.0100 165.1510 225° Southwest 411 473 34,000  Level FlightAware
03:05AM -23.0630 165.0950 224° Southwest 410 472 34,000  Level FlightAware
03:06AM -23.1060 165.0490 225° Southwest 410 472 34,000  Level FlightAware
03:07AM -23.1620 164.9880 225° Southwest 410 472 34,000  Level FlightAware
03:07AM -23.2090 164.9390 224° Southwest 410 472 34,000  Level FlightAware
03:08AM -23.2510 164.8950 224° Southwest 410 472 34,000  Level FlightAware
03:09AM -23.2920 164.8510 225° Southwest 410 472 34,000  Level FlightAware
03:09AM -23.3340 164.8070 224° Southwest 410 472 34,000  Level FlightAware
03:10AM -23.3760 164.7630 224° Southwest 410 472 34,000  Level FlightAware
03:10AM -23.4190 164.7180 224° Southwest 410 472 34,000  Level FlightAware
03:11AM -23.4600 164.6740 225° Southwest 410 472 34,000  Level FlightAware
03:11AM -23.4990 164.6340 223° Southwest 410 472 34,000  Level FlightAware
03:12AM -23.5380 164.5920 225° Southwest 410 472 34,000  Level FlightAware
03:13AM -23.5800 164.5480 224° Southwest 410 472 34,000  Level FlightAware
03:13AM -23.6220 164.5040 224° Southwest 410 472 34,000  Level FlightAware
03:14AM -23.6630 164.4600 225° Southwest 410 472 34,000  Level FlightAware
03:14AM -23.7050 164.4160 224° Southwest 410 472 34,000  Level FlightAware
03:15AM -23.7470 164.3720 224° Southwest 410 472 34,000  Level FlightAware
03:16AM -23.7890 164.3280 224° Southwest 410 472 34,000  Level FlightAware
03:16AM -23.8300 164.2840 224° Southwest 410 472 34,000  Level FlightAware
03:17AM -23.8720 164.2400 224° Southwest 410 472 34,000  Level FlightAware
03:19AM -24.0082 164.0894 225° Southwest  Level FlightAware Approximate
03:20AM -24.0898 163.9988 225° Southwest  Level FlightAware Approximate
03:21AM -24.1714 163.9082 225° Southwest  Level FlightAware Approximate
03:22AM -24.2529 163.8174 225° Southwest  Level FlightAware Approximate
03:23AM -24.3344 163.7265 225° Southwest  Level FlightAware Approximate
03:24AM -24.4158 163.6355 225° Southwest  Level FlightAware Approximate
03:25AM -24.4971 163.5444 226° Southwest  Level FlightAware Approximate
03:25AM -24.5476 163.4792 222° Southwest 36,000  Level Aus ATC (Calculated)
03:27AM -24.6935 163.3180 225° Southwest  Level FlightAware Approximate
03:28AM -24.7703 163.2330 225° Southwest  Level FlightAware Approximate
03:28AM -24.8418 163.1523 222° Southwest 36,000  Level Aus ATC (Calculated)
03:29AM -24.9501 163.0313 222° Southwest 36,000 -60 Level Aus ATC (Calculated)
03:31AM -25.1062 162.8668 224° Southwest  Level FlightAware Approximate
03:31AM -25.2119 162.7376 222° Southwest 36,000  Level Aus ATC (Calculated)
03:32AM -25.0275 162.9498 44° Northeast  Level FlightAware Approximate
03:33AM -25.0204 162.9545 225° Southwest  Level FlightAware Approximate
03:34AM -25.3750 162.5537 226° Southwest  Level FlightAware Approximate
03:35AM -25.4508 162.4680 226° Southwest  Level FlightAware Approximate
03:36AM -25.5265 162.3821 226° Southwest  Level FlightAware Approximate
03:37AM -25.6022 162.2962 226° Southwest  Level FlightAware Approximate
03:38AM -25.6778 162.2102 226° Southwest  Level FlightAware Approximate
03:39AM -25.7533 162.1240 226° Southwest  Level FlightAware Approximate
03:40AM -25.8289 162.0378 226° Southwest  Level FlightAware Approximate
03:41AM -25.9043 161.9514 226° Southwest  Level FlightAware Approximate
03:42AM -25.9798 161.8649 226° Southwest  Level FlightAware Approximate
03:43AM -26.0551 161.7783 226° Southwest  Level FlightAware Approximate
03:44AM -26.1304 161.6916 226° Southwest  Level FlightAware Approximate
03:45AM -26.2057 161.6048 226° Southwest  Level FlightAware Approximate
03:46AM -26.2809 161.5179 226° Southwest  Level FlightAware Approximate
03:47AM -26.3561 161.4308 226° Southwest  Level FlightAware Approximate
03:48AM -26.4312 161.3437 226° Southwest  Level FlightAware Approximate
03:49AM -26.5062 161.2564 226° Southwest  Level FlightAware Approximate
03:50AM -26.5812 161.1691 226° Southwest  Level FlightAware Approximate
03:51AM -26.6562 161.0816 226° Southwest  Level FlightAware Approximate
03:51AM -27.2661 160.3628 219° Southwest 36,000  Level Aus ATC (Calculated)
03:52AM -26.7311 160.9940 226° Southwest  Level FlightAware Approximate
03:53AM -27.3492 160.2639 227° Southwest  Level FlightAware Approximate
03:53AM -27.4522 160.1411 219° Southwest 36,000  Level Aus ATC (Calculated)
03:54AM -27.4236 160.1752 227° Southwest  Level FlightAware Approximate
03:55AM -27.5351 160.0419 227° Southwest  Level FlightAware Approximate
03:55AM -27.6533 159.9001 218° Southwest 36,000  Level Aus ATC (Calculated)
03:56AM -27.6094 159.9529 227° Southwest  Level FlightAware Approximate
03:57AM -27.7361 159.8005 227° Southwest  Level FlightAware Approximate
03:58AM -27.8102 159.7112 227° Southwest  Level FlightAware Approximate
03:59AM -27.8842 159.6218 227° Southwest  Level FlightAware Approximate
04:00AM -27.9582 159.5322 227° Southwest  Level FlightAware Approximate
04:01AM -28.0321 159.4425 227° Southwest  Level FlightAware Approximate
04:01AM -28.2168 159.2176 215° Southwest 36,000  Level Aus ATC (Calculated)
04:03AM -28.3187 159.0929 227° Southwest  Level FlightAware Approximate
04:04AM -28.2450 159.1830 47° Northeast  Level FlightAware Approximate
04:05AM -28.3187 159.0928 227° Southwest  Level FlightAware Approximate
04:06AM -28.2450 159.1830 47° Northeast  Level FlightAware Approximate
04:06AM -28.6617 158.6701 209° Southwest 36,000  Level Aus ATC (Calculated)
04:07AM -28.3232 159.0873 227° Southwest  Level FlightAware Approximate
04:08AM -28.5461 158.8130 47° Northeast  Level FlightAware Approximate
04:09AM -28.4681 158.9092 47° Northeast  Level FlightAware Approximate
04:10AM -28.3901 159.0052 47° Northeast  Level FlightAware Approximate
04:10AM -28.9863 158.2659 201° Southwest 36,000  Level Aus ATC (Calculated)
04:10AM -29.0268 158.2153 199° South 36,000 -180 Level Aus ATC (Calculated)
04:12AM -28.9376 158.3269 48° Northeast  Level FlightAware Approximate
04:13AM -28.8600 158.4238 48° Northeast  Level FlightAware Approximate
04:14AM -28.7822 158.5205 48° Northeast  Level FlightAware Approximate
04:15AM -28.7045 158.6171 47° Northeast  Level FlightAware Approximate
04:15AM -29.4709 157.6550 155° Southeast 36,000  Level Aus ATC (Calculated)
04:16AM -28.7805 158.5187 227° Southwest  Level Estimated
04:17AM -29.5609 157.5406 228° Southwest  Level FlightAware Approximate
04:18AM -29.6379 157.4424 228° Southwest  Level FlightAware Approximate
04:19AM -29.7148 157.3440 228° Southwest  Level FlightAware Approximate
04:20AM -29.7917 157.2455 228° Southwest  Level FlightAware Approximate
04:20AM -29.8726 157.1415 90° East 36,000  Level Aus ATC (Calculated)
04:21AM -29.8684 157.1468 228° Southwest  Level FlightAware Approximate
04:22AM -29.9557 157.0344 228° Southwest  Level FlightAware Approximate
04:23AM -30.0323 156.9354 228° Southwest  Level FlightAware Approximate
04:24AM -30.1089 156.8362 228° Southwest  Level FlightAware Approximate
04:25AM -30.1854 156.7369 228° Southwest  Level FlightAware Approximate
04:25AM -30.3121 156.5718 69° East 36,000  Level Aus ATC (Calculated)
04:26AM -30.2617 156.6375 228° Southwest  Level FlightAware Approximate
04:27AM -30.3960 156.4621 228° Southwest  Level FlightAware Approximate
04:27AM -29.8758 157.8772 228° Southwest 355 409 34,000  Level Aus ATC (RADAR)
04:27AM -29.9348 157.8301 215° Southwest 429 494 34,000  Level Aus ATC (RADAR)
04:27AM -29.9588 157.8110 215° Southwest 429 494 34,000  Level Aus ATC (RADAR)
04:30AM -30.2280 157.5960 215° Southwest 514 592 34,000  Level Aus ATC (RADAR)
04:31AM -30.2858 157.5491 215° Southwest 471 542 34,000  Level Aus ATC (RADAR)
04:31AM -30.3612 157.4878 215° Southwest 456 525 34,000  Level Aus ATC (RADAR)
04:32AM -30.4011 157.4553 215° Southwest 447 514 34,000  Level Aus ATC (RADAR)
04:32AM -30.4559 157.4105 215° Southwest 435 501 34,000  Level Aus ATC (RADAR)
04:33AM -30.5629 157.3236 215° Southwest 434 499 34,000  Level Aus ATC (RADAR)
04:34AM -30.6036 157.2906 215° Southwest 433 498 34,000  Level Aus ATC (RADAR)
04:34AM -30.6617 157.2435 215° Southwest 434 499 34,000  Level Aus ATC (RADAR)
04:35AM -30.7296 157.1883 215° Southwest 440 506 34,000  Level Aus ATC (RADAR)
04:36AM -30.7829 157.1449 215° Southwest 430 495 34,000  Level Aus ATC (RADAR)
04:36AM -30.8569 157.0844 215° Southwest 433 498 34,000  Level Aus ATC (RADAR)
04:37AM -30.8990 157.0500 215° Southwest 438 504 34,000  Level Aus ATC (RADAR)
04:37AM -30.9575 157.0022 215° Southwest 441 507 34,000  Level Aus ATC (RADAR)
04:38AM -31.0498 156.9272 215° Southwest 444 511 34,000  Level Aus ATC (RADAR)
04:39AM -31.0913 156.8928 215° Southwest 436 502 34,000  Level Aus ATC (RADAR)
04:39AM -31.1507 156.8441 215° Southwest 446 513 34,000  Level Aus ATC (RADAR)
04:40AM -31.2241 156.7831 215° Southwest 437 503 34,000  Level Aus ATC (RADAR)
04:41AM -31.2812 156.7357 215° Southwest 434 499 34,000  Level Aus ATC (RADAR)
04:41AM -31.3135 156.7087 216° Southwest 432 497 34,000  Level Aus ATC (RADAR)
04:45AM -31.7328 156.3607 215° Southwest 450 518 34,000  Level Aus ATC (RADAR)
04:46AM -31.7839 156.3190 215° Southwest 446 513 34,000 -120 Level Aus ATC (RADAR)
04:46AM -31.8414 156.2709 215° Southwest 442 509 33,900 -120 Descending Aus ATC (RADAR)
04:47AM -31.9061 156.2164 216° Southwest 437 503 33,900 -120 Level Aus ATC (RADAR)
04:48AM -31.9627 156.1686 216° Southwest 435 501 33,800 60 Descending Aus ATC (RADAR)
04:49AM -32.0697 156.0789 215° Southwest 436 502 34,000 60 Climbing Aus ATC (RADAR)
04:49AM -32.1100 156.0450 215° Southwest 433 498 33,900 -120 Descending Aus ATC (RADAR)
04:50AM -32.1669 155.9969 216° Southwest 433 498 33,900 -120 Level Aus ATC (RADAR)
04:50AM -32.2493 155.9272 216° Southwest 436 502 33,800  Descending Aus ATC (RADAR)
04:51AM -32.3065 155.8786 216° Southwest 437 503 33,900 60 Climbing Aus ATC (RADAR)
04:52AM -32.3882 155.8093 216° Southwest 436 502 33,900  Level Aus ATC (RADAR)
04:52AM -32.4294 155.7744 216° Southwest 437 503 33,900  Level Aus ATC (RADAR)
04:53AM -32.4869 155.7251 216° Southwest 437 503 33,900 -120 Level Aus ATC (RADAR)
04:54AM -32.5772 155.6478 216° Southwest 438 504 33,800 -120 Descending Aus ATC (RADAR)
04:54AM -32.6181 155.6131 215° Southwest 437 503 33,800 60 Level Aus ATC (RADAR)
04:55AM -32.6762 155.5631 216° Southwest 442 509 33,900 60 Climbing Aus ATC (RADAR)
04:56AM -32.7509 155.4994 216° Southwest 442 509 33,900  Level Aus ATC (RADAR)
04:56AM -32.8086 155.4498 216° Southwest 445 512 33,900 -120 Level Aus ATC (RADAR)
04:57AM -32.8824 155.3860 216° Southwest 441 507 33,800 -120 Descending Aus ATC (RADAR)
04:57AM -32.9225 155.3515 216° Southwest 434 499 33,800  Level Aus ATC (RADAR)
04:58AM -32.9858 155.2958 216° Southwest 428 493 33,800 60 Level Aus ATC (RADAR)
04:59AM -33.0666 155.2268 216° Southwest 429 494 33,900 60 Climbing Aus ATC (RADAR)
04:59AM -33.1058 155.1921 217° Southwest 426 490 33,900 660 Level Aus ATC (RADAR)
05:00AM -33.1613 155.1434 216° Southwest 428 493 34,600 1,440 Climbing Aus ATC (RADAR)
05:00AM -33.1980 155.1120 216° Southwest 428 493 35,400 1,680 Climbing FlightAware
05:01AM -33.2328 155.0813 216° Southwest 426 490 35,900 240 Climbing Aus ATC (RADAR)
05:01AM -33.2610 155.0580 216° Southwest 427 491 35,600 60 Descending FlightAware
05:02AM -33.3190 155.0070 216° Southwest 418 481 36,000 300 Climbing FlightAware
05:02AM -33.3830 154.9510 216° Southwest 382 440 36,000  Level FlightAware
05:03AM -33.4310 154.9100 215° Southwest 369 425 36,000  Level FlightAware
05:04AM -33.4960 154.8520 217° Southwest 367 422 36,000  Level FlightAware
05:04AM -33.5380 154.8160 216° Southwest 367 422 36,000  Level FlightAware
05:05AM -33.5970 154.7630 217° Southwest 366 421 36,000  Level FlightAware
05:05AM -33.6470 154.7190 216° Southwest 368 423 36,000  Level FlightAware
05:06AM -33.7070 154.6670 216° Southwest 369 425 36,000  Level FlightAware
05:07AM -33.7700 154.6110 216° Southwest 370 426 36,000  Level FlightAware
05:07AM -33.8160 154.5700 217° Southwest 371 427 36,000  Level FlightAware
05:08AM -33.8660 154.5250 217° Southwest 371 427 36,000  Level FlightAware
05:09AM -33.9130 154.4840 216° Southwest 370 426 36,000  Level FlightAware
05:09AM -33.9350 154.4590 223° Southwest 353 406 36,000  Level FlightAware
05:09AM -33.9440 154.4310 249° West 340 391 36,000  Level FlightAware
05:10AM -33.9500 154.3660 264° West 337 388 36,000  Level FlightAware
05:10AM -33.9570 154.2850 264° West 339 390 36,000  Level FlightAware
05:11AM -33.9620 154.2190 265° West 340 391 36,000  Level FlightAware
05:12AM -33.9670 154.1550 265° West 341 392 36,000 -180 Level FlightAware
05:12AM -33.9712 154.0887 265° West 335 386 35,800  Descending Aus ATC (RADAR)
05:12AM -33.9720 154.0980 265° West 341 392 36,000 300 Climbing FlightAware
05:13AM -33.9780 154.0200 265° West 341 392 36,000  Level FlightAware
05:14AM -33.9840 153.9420 265° West 337 388 36,000 -180 Level FlightAware
05:14AM -33.9896 153.8693 265° West 321 369 35,800  Descending Aus ATC (RADAR)
05:14AM -33.9900 153.8660 265° West 333 383 36,000 300 Climbing FlightAware
05:15AM -33.9940 153.8030 266° West 330 380 36,000  Level FlightAware
05:15AM -34.0000 153.7320 264° West 330 380 36,000  Level FlightAware
05:16AM -34.0030 153.7040 263° West 332 382 36,000  Level FlightAware
05:16AM -34.0110 153.6820 246° West 342 394 36,000  Level FlightAware
05:16AM -34.0240 153.6650 227° Southwest 355 409 36,000  Level FlightAware
05:17AM -34.0640 153.6170 225° Southwest 359 413 36,000  Level FlightAware
05:17AM -34.1060 153.5660 225° Southwest 360 414 36,000  Level FlightAware
05:18AM -34.1410 153.5250 224° Southwest 359 413 36,000 -240 Level FlightAware
05:18AM -34.1818 153.4745 224° Southwest 351 404 35,800  Descending Aus ATC (RADAR)
05:18AM -34.1860 153.4690 224° Southwest 360 414 36,000 240 Climbing FlightAware
05:19AM -34.2290 153.4180 224° Southwest 362 417 36,000 -240 Level FlightAware
05:19AM -34.2684 153.3714 224° Southwest 360 414 35,800  Descending Aus ATC (RADAR)
05:20AM -34.2740 153.3640 224° Southwest 362 417 36,000 300 Climbing FlightAware
05:20AM -34.3080 153.3250 223° Southwest 361 415 36,000  Level FlightAware
05:21AM -34.3500 153.2760 224° Southwest 361 415 36,000 -240 Level FlightAware
05:21AM -34.3915 153.2287 224° Southwest 353 406 35,800  Descending Aus ATC (RADAR)
05:21AM -34.3990 153.2190 224° Southwest 364 419 36,000 300 Climbing FlightAware
05:22AM -34.4370 153.1880 214° Southwest 388 447 36,000  Level FlightAware
05:22AM -34.5000 153.1550 203° Southwest 391 450 36,000 -180 Level FlightAware
05:23AM -34.5562 153.1275 203° Southwest 388 447 35,800  Descending Aus ATC (RADAR)
05:23AM -34.5520 153.1290 203° Southwest 389 448 36,000  Climbing FlightAware
05:24AM -34.6143 153.0985 203° Southwest 387 445 35,800  Descending Aus ATC (RADAR)
05:24AM -34.6120 153.0990 203° Southwest 387 445 36,000 300 Climbing FlightAware
05:24AM -34.6660 153.0700 204° Southwest 377 434 36,000  Level FlightAware
05:24AM -34.6890 153.0310 234° Southwest 337 388 36,000  Level FlightAware
05:25AM -34.6920 153.0120 259° West 327 376 36,000  Level FlightAware
05:25AM -34.6840 152.9750 285° West 325 374 36,000  Level FlightAware
05:25AM -34.6710 152.9570 311° West 333 383 36,000  Level FlightAware
05:25AM -34.6570 152.9450 325° Northwest 343 395 36,000  Level FlightAware
05:26AM -34.6160 152.9190 332° Northwest 346 398 36,000 -120 Level FlightAware
05:27AM -34.5640 152.8850 332° Northwest 334 384 35,900 -1,380 Descending FlightAware
05:27AM -34.5140 152.8520 331° Northwest 337 388 34,300 -2,160 Descending FlightAware
05:28AM -34.4640 152.8160 331° Northwest 343 395 33,300 -2,340 Descending FlightAware
05:28AM -34.4505 152.8058 331° Northwest 337 388 32,700 -2,760 Descending Aus ATC (RADAR)
05:28AM -34.4490 152.7990 317° Northwest 336 387 32,800 -1,620 Climbing FlightAware
05:29AM -34.4210 152.7450 302° West 331 381 31,600 -1,920 Descending FlightAware
05:29AM -34.3880 152.6860 304° West 322 371 30,400 -1,800 Descending FlightAware
05:30AM -34.3600 152.6370 305° West 316 364 29,400 -1,800 Descending FlightAware
05:30AM -34.3290 152.5830 305° West 308 354 28,300 -1,800 Descending FlightAware
05:31AM -34.2960 152.5230 304° West 299 344 27,100 -1,800 Descending FlightAware
05:32AM -34.2660 152.4710 305° West 305 351 26,000 -1,800 Descending FlightAware
05:32AM -34.2390 152.4230 304° West 310 357 25,000 -1,800 Descending FlightAware
05:33AM -34.2110 152.3750 305° West 305 351 24,000 -1,740 Descending FlightAware
05:33AM -34.1820 152.3240 304° West 296 341 23,000 -1,680 Descending FlightAware
05:34AM -34.1570 152.2810 305° West 287 330 22,100 -1,680 Descending FlightAware
05:35AM -34.1310 152.2340 304° West 284 327 21,100 -1,920 Descending FlightAware
05:35AM -34.1047 152.1904 304° West 282 325 20,000 -1,500 Descending Aus ATC (RADAR)
05:35AM -34.1030 152.1870 304° West 286 329 20,200 -1,140 Climbing FlightAware
05:36AM -34.0800 152.1450 303° West 279 321 19,300 -1,680 Descending FlightAware
05:36AM -34.0520 152.0980 306° West 270 311 18,300 -1,620 Descending FlightAware
05:37AM -34.0330 152.0520 296° West 261 300 17,400 -1,620 Descending FlightAware
05:38AM -34.0280 152.0010 277° West 268 308 16,500 -1,500 Descending FlightAware
05:38AM -34.0240 151.9570 276° West 265 305 15,800 -1,620 Descending FlightAware
05:39AM -34.0180 151.9000 277° West 263 303 14,700 -1,680 Descending FlightAware
05:39AM -34.0130 151.8490 277° West 258 297 13,800 -1,560 Descending FlightAware
05:40AM -34.0070 151.7970 278° West 254 292 12,900 -1,560 Descending FlightAware
05:40AM -34.0020 151.7490 277° West 250 288 12,000 -1,560 Descending FlightAware
05:41AM -33.9970 151.6990 277° West 246 283 11,100 -1,380 Descending FlightAware
05:42AM -33.9930 151.6580 277° West 239 275 10,500 -1,320 Descending FlightAware
05:42AM -33.9900 151.6240 276° West 234 269 9,900 -1,440 Descending FlightAware
05:42AM -33.9870 151.6010 279° West 231 266 9,500 -1,620 Descending FlightAware
05:43AM -33.9970 151.5510 256° West 255 293 8,400 -1,740 Descending FlightAware
05:43AM -34.0140 151.5300 226° Southwest 260 299 7,800 -1,800 Descending FlightAware
05:44AM -34.0320 151.5070 227° Southwest 265 305 7,200 -1,800 Descending FlightAware
05:44AM -34.0480 151.4850 229° Southwest 267 307 6,600 -1,620 Descending FlightAware
05:44AM -34.0650 151.4620 228° Southwest 265 305 6,100 -1,320 Descending FlightAware
05:45AM -34.0800 151.4410 229° Southwest 257 296 5,700 -1,080 Descending FlightAware
05:45AM -34.0930 151.4240 227° Southwest 251 289 5,500 -900 Descending FlightAware
05:45AM -34.1080 151.4040 228° Southwest 246 283 5,200 -780 Descending FlightAware
05:46AM -34.1210 151.3870 227° Southwest 240 276 5,000 -960 Descending FlightAware
05:46AM -34.1400 151.3590 231° Southwest 230 265 4,500 -1,080 Descending FlightAware
05:46AM -34.1540 151.3410 227° Southwest 227 261 4,200 -600 Descending FlightAware
05:47AM -34.1640 151.3220 238° Southwest 222 255 4,100 -300 Descending FlightAware
05:47AM -34.1710 151.2950 253° West 213 245 4,000 -300 Descending FlightAware
05:47AM -34.1710 151.2910 270° West 212 244 4,000 -480 Level FlightAware
05:47AM -34.1640 151.2710 293° West 204 235 3,800 -600 Descending FlightAware
05:48AM -34.1490 151.2560 320° Northwest 205 236 3,600 -660 Descending FlightAware
05:48AM -34.1340 151.2410 320° Northwest 201 231 3,400 -660 Descending FlightAware
05:48AM -34.1260 151.2360 333° Northwest 203 234 3,300 -1,200 Descending FlightAware
05:49AM -34.1070 151.2290 343° North 218 251 2,800 -1,200 Descending FlightAware
05:49AM -34.0870 151.2240 348° North 214 246 2,500 -900 Descending FlightAware
05:49AM -34.0680 151.2190 348° North 211 243 2,200 -900 Descending FlightAware
05:50AM -34.0490 151.2150 350° North 195 224 1,900 -1,080 Descending FlightAware
05:50AM -34.0370 151.2110 345° North 188 216 1,600 -1,200 Descending FlightAware
05:50AM -34.0210 151.2070 348° North 178 205 1,200 -1,080 Descending FlightAware
05:51AM -34.0030 151.2020 347° North 150 173 800 -840 Descending FlightAware
05:51AM -33.9970 151.2010 352° North 145 167 700 -540 Descending FlightAware
05:51AM -33.9750 151.1950 347° North 147 169 400 -600 Descending FlightAware
05:52AM -33.9610 151.1910 347° North 115 132 -1,200 Descending FlightAware